Bildad 1945   Tisdagen den 24 maj 2016 (Ivan, Vanja)

Blekinge Flygklubb
Eringsbodavägen 16 B
372 92 Kallinge
Org.nr. 835600-0144



AVGAS 91/96 UL (2016-05-09 kl 14:39 av Christian Darnell)

För tankning av AVGAS 91/96UL ring 0732-430 530. Betalning kort eller kontant (SEK/EURO). Fuel AVGAS 91/96UL is available at Blekinge Flygklubb west of RWY 01/19, TWY W. Fuel... Läs hela

Till Anslagstavlan

Väder ESDF

METAR
ESDF 240720Z 10006KT 070V140 CAVOK 21/14 Q1011

TAF
ESDF 240430Z 2405/2415 05005KT CAVOK BECMG 2409/2411 12009G19KT RMK MIL

Förgasaris
Måttlig is vid planflykt, svår is vid låg effekt

METAR | TAF | Nordic SWC | Väderstatistik

Inhämta alltid aktuellt väder hos LFV innan du flyger.

NOTAM för kommande 24h

+ = 0-3 dgr | - = >3 dgr gammal
Kontrollera alltid LFV NOTAM